Time;durP1;ratioP1;P1;durP2;ratioP2;P2;SDS_P1;SDS_P2;PMS_P1;PMS_P2;Temp;Humidity;BMP_temperature;BMP_pressure;BME280_temperature;BME280_humidity;BME280_pressure;Samples;Min_cycle;Max_cycle;Signal;HPM_P1;HPM_P2
2022/09/28 00:02:41;;;;;;;13.32;6.63;;;;;;;4.39;100.00;99309.16;12875912;22;20022;-86
2022/09/28 00:07:41;;;;;;;11.55;7.38;;;;;;;4.12;100.00;99268.22;12926275;22;20019;-86
2022/09/28 00:12:44;;;;;;;11.88;7.53;;;;;;;4.92;100.00;99432.28;12875812;22;20004;-86
2022/09/28 00:17:45;;;;;;;11.55;7.07;;;;;;;4.37;100.00;99346.75;12876387;22;20019;-86
2022/09/28 00:22:48;;;;;;;11.77;6.68;;;;;;;4.04;100.00;99304.03;12878790;22;20015;-86
2022/09/28 00:27:49;;;;;;;13.93;7.45;;;;;;;3.74;100.00;99280.75;12918824;22;20311;-85
2022/09/28 00:32:50;;;;;;;16.70;7.80;;;;;;;3.89;100.00;99312.81;12891164;22;20377;-86
2022/09/28 00:37:51;;;;;;;13.15;7.50;;;;;;;4.16;100.00;99378.31;12890051;22;20018;-86
2022/09/28 00:42:51;;;;;;;14.05;7.85;;;;;;;3.58;100.00;99333.28;12890133;22;20153;-86
2022/09/28 00:47:55;;;;;;;11.32;7.90;;;;;;;3.30;100.00;99274.28;12890688;22;20008;-87
2022/09/28 00:52:56;;;;;;;12.07;8.68;;;;;;;4.95;100.00;99502.66;12890336;22;20000;-86
2022/09/28 00:57:57;;;;;;;14.55;8.50;;;;;;;4.02;100.00;99409.69;12927272;22;20699;-86
2022/09/28 01:02:58;;;;;;;20.63;9.48;;;;;;;2.93;100.00;99191.25;12900850;22;20008;-86
2022/09/28 01:07:59;;;;;;;21.88;11.00;;;;;;;3.32;100.00;99264.81;12889293;22;20027;-86
2022/09/28 01:13:00;;;;;;;15.07;9.27;;;;;;;2.87;100.00;99186.81;12890589;22;20011;-86
2022/09/28 01:18:33;;;;;;;17.67;10.05;;;;;;;4.80;100.00;99486.91;12889508;22;20149;-86
2022/09/28 01:23:46;;;;;;;20.30;10.00;;;;;;;3.10;100.00;99278.31;12786514;22;20012;-86
2022/09/28 01:28:46;;;;;;;17.10;10.50;;;;;;;3.79;100.00;99364.38;12916649;22;20016;-85
2022/09/28 01:33:56;;;;;;;14.15;9.48;;;;;;;2.98;100.00;99248.47;12890171;22;20373;-87
2022/09/28 01:39:04;;;;;;;20.02;9.93;;;;;;;2.80;100.00;99226.91;12890911;22;20008;-86
2022/09/28 01:44:07;;;;;;;18.52;11.45;;;;;;;3.43;100.00;99331.94;12704343;22;20018;-86
2022/09/28 01:49:16;;;;;;;16.73;10.68;;;;;;;2.54;100.00;99198.44;12791242;22;20382;-87
2022/09/28 01:54:28;;;;;;;18.23;11.15;;;;;;;3.09;100.00;99319.34;12732326;22;20010;-87
2022/09/28 01:59:28;;;;;;;20.77;11.88;;;;;;;2.82;100.00;99260.94;12717944;22;20098;-86
2022/09/28 02:04:34;;;;;;;20.00;12.00;;;;;;;2.95;100.00;99254.38;12702361;22;20016;-86
2022/09/28 02:09:39;;;;;;;23.95;11.15;;;;;;;2.43;100.00;99192.00;12690736;22;20017;-86
2022/09/28 02:14:40;;;;;;;17.50;11.70;;;;;;;2.89;100.00;99266.22;12702034;22;20013;-86
2022/09/28 02:19:41;;;;;;;18.45;10.95;;;;;;;3.32;100.00;99387.22;12809017;22;20025;-86
2022/09/28 02:25:00;;;;;;;16.35;10.32;;;;;;;4.12;100.00;99458.03;12748921;22;20042;-86
2022/09/28 02:30:01;;;;;;;18.40;9.75;;;;;;;2.58;100.00;99268.38;12753586;22;20017;-86
2022/09/28 02:35:01;;;;;;;19.83;11.70;;;;;;;2.98;100.00;99326.47;12702789;22;20002;-86
2022/09/28 02:40:03;;;;;;;19.92;11.65;;;;;;;3.06;100.00;99363.31;12700841;22;20397;-86
2022/09/28 02:45:09;;;;;;;14.40;10.35;;;;;;;3.44;100.00;99382.53;12811981;22;20031;-86
2022/09/28 02:50:35;;;;;;;16.38;10.48;;;;;;;3.09;100.00;99328.31;12871986;22;20366;-86
2022/09/28 02:55:44;;;;;;;22.77;12.48;;;;;;;4.36;100.00;99472.31;12827955;22;20335;-86
2022/09/28 03:01:00;;;;;;;28.23;12.30;;;;;;;3.87;100.00;99393.91;12867760;22;20022;-85
2022/09/28 03:06:14;;;;;;;35.25;13.40;;;;;;;3.06;100.00;99233.66;12833533;22;20001;-85
2022/09/28 03:11:20;;;;;;;44.15;13.88;;;;;;;3.89;100.00;99334.59;12838487;22;20011;-85
2022/09/28 03:16:23;;;;;;;60.90;14.52;;;;;;;3.33;100.00;99260.19;12784448;22;20059;-86
2022/09/28 03:21:24;;;;;;;47.65;14.63;;;;;;;4.25;100.00;99398.59;12814366;22;20019;-85
2022/09/28 03:26:24;;;;;;;40.42;16.60;;;;;;;4.07;100.00;99314.44;12814383;22;20088;-86
2022/09/28 03:31:25;;;;;;;30.50;15.90;;;;;;;4.23;100.00;99335.38;12812993;22;20023;-86
2022/09/28 03:36:25;;;;;;;99.63;17.45;;;;;;;5.41;100.00;99514.19;12799449;22;20015;-86
2022/09/28 03:41:26;;;;;;;74.47;19.48;;;;;;;4.56;100.00;99360.88;12818426;22;20028;-86
2022/09/28 03:46:27;;;;;;;75.50;16.73;;;;;;;4.88;100.00;99390.22;12826402;23;20080;-86
2022/09/28 03:51:28;;;;;;;58.20;16.70;;;;;;;3.96;100.00;99242.66;12805816;23;20019;-85
2022/09/28 03:56:28;;;;;;;35.33;16.58;;;;;;;5.12;100.00;99411.78;12828243;23;20000;-86
2022/09/28 04:01:29;;;;;;;127.60;17.80;;;;;;;3.90;100.00;99253.72;12814587;23;20119;-86
2022/09/28 04:06:29;;;;;;;37.60;15.05;;;;;;;5.04;100.00;99443.03;12829352;23;20062;-86
2022/09/28 04:11:30;;;;;;;61.42;16.92;;;;;;;3.87;100.00;99278.75;12827472;23;20008;-86
2022/09/28 04:16:31;;;;;;;76.72;17.60;;;;;;;5.50;100.00;99500.09;12814371;23;20031;-86
2022/09/28 04:21:31;;;;;;;54.78;17.15;;;;;;;3.56;100.00;99219.22;12842208;23;20020;-87
2022/09/28 04:26:32;;;;;;;61.70;19.33;;;;;;;3.74;100.00;99214.56;12879891;23;20004;-86
2022/09/28 04:31:48;;;;;;;84.35;19.30;;;;;;;5.37;100.00;99479.47;12815214;23;20012;-86
2022/09/28 04:36:49;;;;;;;59.80;17.30;;;;;;;5.05;100.00;99500.09;12871360;23;20435;-86
2022/09/28 04:41:50;;;;;;;67.82;18.45;;;;;;;4.59;100.00;99414.91;12757857;22;20029;-85
2022/09/28 04:46:50;;;;;;;126.47;19.05;;;;;;;4.51;100.00;99396.28;12538787;22;20037;-86
2022/09/28 04:51:51;;;;;;;42.35;17.02;;;;;;;4.09;100.00;99346.88;12638610;22;20037;-86
2022/09/28 04:56:54;;;;;;;56.20;17.98;;;;;;;2.94;100.00;99133.13;12638246;22;20072;-85
2022/09/28 05:01:54;;;;;;;45.88;16.17;;;;;;;4.28;100.00;99393.72;12580062;22;20045;-86
2022/09/28 05:06:55;;;;;;;45.65;18.10;;;;;;;4.07;100.00;99382.50;12628550;22;20006;-86
2022/09/28 05:11:56;;;;;;;109.38;18.70;;;;;;;4.18;100.00;99430.63;12635753;22;20046;-86
2022/09/28 05:16:57;;;;;;;69.72;16.73;;;;;;;3.31;100.00;99312.13;12633195;22;20062;-86
2022/09/28 05:21:59;;;;;;;50.17;16.27;;;;;;;3.83;100.00;99407.19;12537830;22;20409;-85
2022/09/28 05:26:59;;;;;;;51.72;15.55;;;;;;;3.00;100.00;99229.19;12649342;22;20511;-86
2022/09/28 05:32:00;;;;;;;49.20;16.38;;;;;;;3.33;100.00;99348.06;12667703;22;20065;-86
2022/09/28 05:37:01;;;;;;;52.50;17.30;;;;;;;3.68;100.00;99366.09;12637735;22;20045;-87
2022/09/28 05:42:01;;;;;;;85.60;15.38;;;;;;;3.76;100.00;99417.41;12687135;22;20494;-85
2022/09/28 05:47:02;;;;;;;58.83;15.13;;;;;;;2.75;100.00;99237.69;12820958;23;20009;-86
2022/09/28 05:52:02;;;;;;;48.13;15.52;;;;;;;2.90;100.00;99275.22;12825726;23;20056;-86
2022/09/28 05:57:04;;;;;;;44.85;15.52;;;;;;;2.17;100.00;99196.09;12824440;23;20450;-86
2022/09/28 06:02:05;;;;;;;28.58;13.55;;;;;;;3.26;100.00;99379.19;12811340;23;20022;-86
2022/09/28 06:07:05;;;;;;;109.55;15.52;;;;;;;2.63;100.00;99245.91;12814830;23;20015;-85
2022/09/28 06:12:06;;;;;;;45.50;14.45;;;;;;;3.58;100.00;99404.03;12815167;23;20008;-86
2022/09/28 06:17:07;;;;;;;97.10;16.88;;;;;;;3.00;100.00;99349.63;12828852;23;20005;-85
2022/09/28 06:22:07;;;;;;;49.60;14.30;;;;;;;2.81;100.00;99312.81;12813550;23;20395;-85
2022/09/28 06:27:08;;;;;;;80.00;14.30;;;;;;;3.31;100.00;99369.25;12850264;23;20039;-86
2022/09/28 06:32:10;;;;;;;75.15;11.88;;;;;;;3.56;100.00;99434.19;12827817;23;20027;-85
2022/09/28 06:37:11;;;;;;;112.57;14.30;;;;;;;2.40;100.00;99271.25;12809220;23;20056;-85
2022/09/28 06:42:11;;;;;;;53.15;11.95;;;;;;;3.30;100.00;99430.16;12828921;23;20076;-86
2022/09/28 06:47:13;;;;;;;50.25;11.88;;;;;;;3.43;100.00;99413.56;12851733;23;20046;-85
2022/09/28 06:52:16;;;;;;;45.55;12.45;;;;;;;2.24;100.00;99258.44;12850640;23;20000;-86
2022/09/28 06:57:17;;;;;;;68.93;12.35;;;;;;;2.32;100.00;99260.78;12811862;23;20061;-86
2022/09/28 07:02:18;;;;;;;36.95;11.10;;;;;;;1.90;100.00;99195.78;12828316;23;20035;-88
2022/09/28 07:07:21;;;;;;;44.15;11.45;;;;;;;2.89;100.00;99336.88;12815080;23;20019;-90
2022/09/28 07:12:23;;;;;;;54.05;11.63;;;;;;;2.44;100.00;99253.41;12831754;23;20316;-84
2022/09/28 07:17:23;;;;;;;83.10;11.82;;;;;;;2.89;100.00;99330.63;12853793;23;20308;-85
2022/09/28 07:22:24;;;;;;;67.72;11.13;;;;;;;3.09;100.00;99354.69;12818268;23;20012;-85
2022/09/28 07:27:25;;;;;;;96.05;12.07;;;;;;;3.55;100.00;99431.72;12804717;23;20092;-87
2022/09/28 07:32:26;;;;;;;40.63;10.15;;;;;;;3.12;100.00;99340.59;12806916;23;20012;-86
2022/09/28 07:37:27;;;;;;;119.28;13.65;;;;;;;3.53;100.00;99368.53;12853100;23;20004;-87
2022/09/28 07:42:28;;;;;;;58.35;10.18;;;;;;;3.21;100.00;99301.88;12804492;22;20042;-87
2022/09/28 07:47:29;;;;;;;131.65;14.75;;;;;;;3.03;100.00;99288.50;12818463;23;20338;-86
2022/09/28 07:52:29;;;;;;;96.78;12.10;;;;;;;3.07;100.00;99340.50;12820480;23;20014;-87
2022/09/28 07:57:34;;;;;;;108.47;13.75;;;;;;;3.09;100.00;99308.47;12793824;23;20016;-88
2022/09/28 08:02:36;;;;;;;46.83;12.52;;;;;;;2.93;100.00;99294.56;12840899;23;20011;-85
2022/09/28 08:07:37;;;;;;;44.03;11.75;;;;;;;4.18;100.00;99408.84;12808262;23;20036;-87
2022/09/28 08:12:39;;;;;;;59.08;13.18;;;;;;;3.60;100.00;99293.03;12813163;23;20004;-88
2022/09/28 08:17:40;;;;;;;53.33;13.32;;;;;;;4.65;100.00;99405.75;12802585;23;20000;-88
2022/09/28 08:22:40;;;;;;;69.68;12.93;;;;;;;4.75;100.00;99357.88;12817773;23;20050;-86
2022/09/28 08:27:41;;;;;;;97.75;13.23;;;;;;;4.55;100.00;99282.94;12828000;23;20074;-87
2022/09/28 08:32:48;;;;;;;44.15;10.57;;;;;;;4.95;100.00;99325.38;12797928;23;20020;-86
2022/09/28 08:37:51;;;;;;;31.08;10.23;;;;;;;6.48;100.00;99486.38;12845721;23;20016;-86
2022/09/28 08:42:53;;;;;;;30.52;11.05;;;;;;;6.71;100.00;99465.19;12851214;22;20523;-86
2022/09/28 08:53:34;;;;;;;23.73;9.07;;;;;;;7.01;100.00;99465.38;12882095;23;20020;-86
2022/09/28 08:58:36;;;;;;;39.80;9.88;;;;;;;6.87;100.00;99436.84;12827448;23;20366;-85
2022/09/28 09:03:43;;;;;;;30.10;10.23;;;;;;;7.25;100.00;99460.28;12851027;23;20004;-86
2022/09/28 09:08:43;;;;;;;22.65;10.50;;;;;;;7.77;100.00;99537.19;12815457;23;20001;-87
2022/09/28 09:13:56;;;;;;;35.38;10.70;;;;;;;8.41;100.00;99610.03;12889793;23;20446;-86
2022/09/28 09:19:09;;;;;;;46.53;9.35;;;;;;;8.72;100.00;99615.56;12892159;23;20439;-85
2022/09/28 09:24:20;;;;;;;100.97;12.63;;;;;;;8.50;100.00;99550.81;12886533;23;20028;-85
2022/09/28 09:29:50;;;;;;;20.17;7.63;;;;;;;9.15;100.00;99613.38;12874637;23;20008;-84
2022/09/28 09:35:15;;;;;;;11.25;7.43;;;;;;;8.72;100.00;99470.16;12842392;23;20007;-87
2022/09/28 09:40:30;;;;;;;10.73;6.82;;;;;;;9.99;100.00;99619.25;12793023;23;20139;-87
2022/09/28 09:45:52;;;;;;;9.20;6.38;;;;;;;9.50;100.00;99541.91;12676166;22;20026;-87
2022/09/28 09:51:01;;;;;;;8.93;6.13;;;;;;;8.91;100.00;99408.09;12705049;22;20395;-86
2022/09/28 09:56:14;;;;;;;8.48;5.78;;;;;;;9.38;100.00;99471.91;12809122;22;20007;-88
2022/09/28 10:01:18;;;;;;;7.80;5.53;;;;;;;9.76;100.00;99571.22;12834227;22;20021;-87
2022/09/28 10:06:21;;;;;;;6.47;5.63;;;;;;;8.92;100.00;99381.47;12694712;22;20006;-87
2022/09/28 10:11:26;;;;;;;7.68;4.95;;;;;;;9.30;100.00;99462.31;12781831;23;20032;-87
2022/09/28 10:16:27;;;;;;;7.47;4.85;;;;;;;9.40;100.00;99404.59;12742876;23;20398;-88
2022/09/28 10:21:27;;;;;;;5.63;4.43;;;;;;;9.94;100.00;99449.59;12741333;23;20066;-88
2022/09/28 10:26:33;;;;;;;5.07;4.22;;;;;;;10.52;100.00;99523.22;12781917;23;20005;-87
2022/09/28 10:31:37;;;;;;;5.38;4.28;;;;;;;10.18;100.00;99446.16;12777842;23;20028;-87
2022/09/28 10:37:03;;;;;;;5.93;3.70;;;;;;;11.34;100.00;99549.19;12807735;23;20028;-86
2022/09/28 10:42:07;;;;;;;4.47;3.60;;;;;;;11.88;100.00;99471.63;12722997;22;20032;-84
2022/09/28 10:47:08;;;;;;;3.58;2.80;;;;;;;12.05;100.00;99440.78;12839709;23;20020;-87
2022/09/28 10:52:30;;;;;;;4.63;3.70;;;;;;;12.71;100.00;99634.09;12851695;23;20012;-86
2022/09/28 10:57:34;;;;;;;4.43;3.75;;;;;;;10.02;100.00;99341.78;12841751;23;20004;-86
2022/09/28 11:02:35;;;;;;;4.82;3.47;;;;;;;11.31;100.00;99545.91;12845621;23;20012;-86
2022/09/28 11:07:44;;;;;;;5.88;2.63;;;;;;;12.21;100.00;99600.56;12812069;23;20342;-86
2022/09/28 11:12:44;;;;;;;5.60;2.40;;;;;;;11.47;100.00;99361.94;12819489;23;20012;-86
2022/09/28 11:17:45;;;;;;;3.50;2.40;;;;;;;12.48;100.00;99448.09;12795516;23;20312;-86
2022/09/28 11:22:47;;;;;;;3.83;1.90;;;;;;;13.25;100.00;99530.44;12846242;23;20031;-87
2022/09/28 11:27:50;;;;;;;2.78;2.05;;;;;;;13.59;100.00;99517.38;12829567;23;20008;-87
2022/09/28 11:32:52;;;;;;;4.20;1.67;;;;;;;14.03;100.00;99513.94;12897600;23;20005;-86
2022/09/28 11:38:13;;;;;;;2.20;1.80;;;;;;;13.15;100.00;99348.25;12827785;23;20088;-86
2022/09/28 11:43:54;;;;;;;3.05;1.48;;;;;;;14.25;100.00;99507.63;12828170;22;20419;-87
2022/09/28 11:49:29;;;;;;;3.25;1.15;;;;;;;14.66;100.00;99617.47;12855602;23;20406;-88
2022/09/28 11:54:36;;;;;;;3.42;1.00;;;;;;;14.12;100.00;99473.34;12829251;23;20005;-87
2022/09/28 11:59:47;;;;;;;1.75;0.70;;;;;;;15.60;100.00;99462.28;12828857;23;20008;-88
2022/09/28 12:04:55;;;;;;;1.27;0.70;;;;;;;17.02;100.00;99530.34;12828680;23;20062;-88
2022/09/28 12:10:09;;;;;;;1.52;0.30;;;;;;;16.20;98.45;99444.09;12803776;23;20426;-90
2022/09/28 12:15:23;;;;;;;1.02;0.60;;;;;;;17.27;98.71;99594.59;12767846;23;20001;-90
2022/09/28 12:20:26;;;;;;;0.75;0.47;;;;;;;15.17;100.00;99464.91;12714091;23;20095;-91
2022/09/28 12:25:27;;;;;;;1.90;0.40;;;;;;;13.32;100.00;99392.66;12774098;23;20015;-89
2022/09/28 12:30:32;;;;;;;0.40;0.40;;;;;;;13.45;100.00;99440.78;12778995;23;20415;-93
2022/09/28 12:35:38;;;;;;;0.50;0.30;;;;;;;15.48;100.00;99543.34;12754763;23;20331;-89
2022/09/28 12:41:16;;;;;;;2.67;0.47;;;;;;;18.04;100.00;99577.94;12862557;23;20541;-87
2022/09/28 12:46:36;;;;;;;0.50;0.35;;;;;;;19.23;85.35;99471.69;12643952;22;20077;-88
2022/09/28 12:51:38;;;;;;;1.13;0.40;;;;;;;19.85;77.19;99481.72;12716617;22;20437;-92
2022/09/28 12:57:30;;;;;;;0.73;0.30;;;;;;;20.16;77.55;99550.13;12718945;22;20015;-87
2022/09/28 13:02:31;;;;;;;1.13;0.47;;;;;;;21.07;73.46;99540.44;12626803;22;20022;-87
2022/09/28 13:07:53;;;;;;;1.40;0.73;;;;;;;19.71;69.22;99325.72;12610573;22;20010;-87
2022/09/28 13:12:56;;;;;;;1.33;0.50;;;;;;;21.50;67.12;99531.22;12742327;22;20012;-91
2022/09/28 13:18:00;;;;;;;2.15;0.40;;;;;;;21.18;68.28;99446.38;12745017;22;20018;-86
2022/09/28 13:23:25;;;;;;;1.15;0.40;;;;;;;22.14;62.50;99526.34;12644046;22;20133;-87
2022/09/28 13:28:26;;;;;;;1.75;0.70;;;;;;;19.55;65.54;99495.06;12677735;22;20041;-87
2022/09/28 13:33:36;;;;;;;3.08;0.60;;;;;;;17.95;74.28;99552.94;12806055;22;20063;-86
2022/09/28 13:38:46;;;;;;;1.38;0.40;;;;;;;16.21;77.89;99504.06;12790143;22;20394;-88
2022/09/28 13:44:06;;;;;;;0.85;0.15;;;;;;;15.93;86.54;99589.56;12870043;22;20102;-88
2022/09/28 13:49:27;;;;;;;0.80;0.40;;;;;;;14.63;94.40;99526.69;12936796;22;20007;-88
2022/09/28 13:54:47;;;;;;;1.02;0.20;;;;;;;14.64;100.00;99614.22;12911455;22;20004;-89
2022/09/28 13:59:50;;;;;;;0.73;0.30;;;;;;;14.29;100.00;99618.56;12937217;22;20022;-87
2022/09/28 14:04:58;;;;;;;1.05;0.25;;;;;;;13.31;100.00;99545.84;12911162;22;20012;-88
2022/09/28 14:10:20;;;;;;;1.08;0.20;;;;;;;14.54;100.00;99619.94;12896301;22;20000;-88
2022/09/28 14:15:35;;;;;;;0.77;0.77;;;;;;;15.13;100.00;99609.72;12923625;22;20010;-88
2022/09/28 14:20:36;;;;;;;3.38;0.60;;;;;;;14.08;100.00;99510.25;12890983;22;20016;-88
2022/09/28 14:26:02;;;;;;;1.27;0.80;;;;;;;14.16;100.00;99625.75;12872530;22;20318;-88
2022/09/28 14:31:07;;;;;;;14.75;6.53;;;;;;;12.00;100.00;99423.50;12897746;22;20003;-88
2022/09/28 14:41:59;;;;;;;9.02;2.25;;;;;;;11.67;100.00;99504.16;12923295;22;20015;-92
2022/09/28 14:47:32;;;;;;;4.70;2.83;;;;;;;12.59;100.00;99656.66;12866715;22;20367;-92
2022/09/28 14:52:38;;;;;;;1.27;0.98;;;;;;;11.80;100.00;99596.38;12939051;22;20042;-88
2022/09/28 14:57:39;;;;;;;0.80;0.70;;;;;;;10.45;100.00;99385.16;12814024;22;19999;-89
2022/09/28 15:02:40;;;;;;;1.25;0.80;;;;;;;11.76;100.00;99578.78;12887900;22;20311;-88
2022/09/28 15:07:49;;;;;;;3.85;0.90;;;;;;;11.38;100.00;99475.84;12886898;22;20000;-86
2022/09/28 15:12:52;;;;;;;1.77;0.90;;;;;;;12.13;100.00;99537.78;12826109;22;20007;-86
2022/09/28 15:18:15;;;;;;;1.55;0.70;;;;;;;12.68;100.00;99602.38;12886575;22;20004;-86
2022/09/28 15:23:36;;;;;;;0.80;0.60;;;;;;;12.90;100.00;99595.44;12916767;22;20015;-87
2022/09/28 15:28:42;;;;;;;0.85;0.47;;;;;;;12.95;100.00;99614.66;12888894;22;20084;-87
2022/09/28 15:39:24;;;;;;;0.57;0.40;;;;;;;10.87;100.00;99411.16;12932868;22;19911;-86
2022/09/28 15:44:35;;;;;;;0.93;0.50;;;;;;;11.42;100.00;99621.03;12894232;22;20081;-88
2022/09/28 15:49:37;;;;;;;1.02;0.50;;;;;;;11.68;100.00;99692.47;12891260;22;20062;-87
2022/09/28 15:54:41;;;;;;;0.90;0.40;;;;;;;10.38;100.00;99566.28;12915373;22;20034;-88
2022/09/28 15:59:42;;;;;;;0.63;0.50;;;;;;;9.43;100.00;99474.63;12891437;22;20355;-86
2022/09/28 16:04:53;;;;;;;1.48;0.60;;;;;;;10.12;100.00;99621.38;12940729;22;20031;-86
2022/09/28 16:10:03;;;;;;;3.15;0.70;;;;;;;8.89;100.00;99448.72;12892777;22;20333;-87
2022/09/28 16:15:06;;;;;;;2.40;0.90;;;;;;;9.42;100.00;99555.38;12875684;22;20075;-88
2022/09/28 16:20:27;;;;;;;8.98;0.70;;;;;;;10.23;100.00;99715.66;12875226;22;20066;-87
2022/09/28 16:25:27;;;;;;;3.70;0.70;;;;;;;8.84;100.00;99523.63;12939355;22;20015;-87
2022/09/28 16:30:31;;;;;;;2.83;0.90;;;;;;;9.18;100.00;99604.63;12890308;22;20012;-87
2022/09/28 16:35:36;;;;;;;2.33;0.88;;;;;;;8.32;100.00;99478.09;12915250;22;20049;-87
2022/09/28 16:40:38;;;;;;;1.88;0.80;;;;;;;8.35;100.00;99487.69;12914616;22;20342;-85
2022/09/28 16:45:39;;;;;;;3.28;1.20;;;;;;;9.78;100.00;99743.00;12887881;22;20022;-88
2022/09/28 16:50:39;;;;;;;4.30;1.40;;;;;;;8.66;100.00;99590.03;12888027;22;20035;-87
2022/09/28 16:55:40;;;;;;;3.15;1.40;;;;;;;8.43;100.00;99578.53;12912113;22;20000;-87
2022/09/28 17:00:42;;;;;;;3.25;1.40;;;;;;;8.09;100.00;99531.53;12871127;22;20015;-87
2022/09/28 17:05:42;;;;;;;2.17;1.52;;;;;;;8.67;100.00;99672.09;12913701;22;20011;-88
2022/09/28 17:10:56;;;;;;;5.40;1.92;;;;;;;9.23;100.00;99730.91;12877182;22;20434;-88
2022/09/28 17:15:57;;;;;;;2.53;1.88;;;;;;;8.02;100.00;99588.50;12937173;22;20073;-87
2022/09/28 17:21:01;;;;;;;3.22;1.40;;;;;;;8.53;100.00;99709.34;12874146;22;20027;-87
2022/09/28 17:26:02;;;;;;;2.60;2.00;;;;;;;8.71;100.00;99786.81;12889274;22;20004;-88
2022/09/28 17:31:03;;;;;;;3.30;2.00;;;;;;;6.27;100.00;99422.50;12872049;22;20556;-86
2022/09/28 17:36:04;;;;;;;6.18;2.38;;;;;;;7.87;100.00;99683.28;12914697;22;20004;-87
2022/09/28 17:41:04;;;;;;;3.97;2.40;;;;;;;6.58;100.00;99513.78;12891259;22;20507;-87
2022/09/28 17:46:09;;;;;;;10.32;3.03;;;;;;;7.63;100.00;99668.34;12894604;22;20015;-87
2022/09/28 17:51:10;;;;;;;4.00;2.15;;;;;;;6.21;100.00;99481.75;12783964;22;20323;-88
2022/09/28 17:56:14;;;;;;;2.83;2.13;;;;;;;7.78;100.00;99722.41;12876504;22;20066;-88
2022/09/28 18:01:18;;;;;;;3.80;2.17;;;;;;;7.28;100.00;99683.44;12861803;22;20019;-88
2022/09/28 18:06:40;;;;;;;3.13;2.35;;;;;;;6.37;100.00;99548.34;12874450;22;20004;-88
2022/09/28 18:11:43;;;;;;;5.25;2.25;;;;;;;6.21;100.00;99555.56;12834526;22;20485;-88
2022/09/28 18:16:44;;;;;;;3.58;2.78;;;;;;;6.78;100.00;99681.88;12856516;22;20080;-89
2022/09/28 18:22:00;;;;;;;3.90;2.60;;;;;;;6.35;100.00;99618.03;12837746;22;20027;-88
2022/09/28 18:27:00;;;;;;;5.90;4.00;;;;;;;6.58;100.00;99669.66;12853975;22;20016;-88
2022/09/28 18:32:05;;;;;;;4.75;3.50;;;;;;;6.36;100.00;99633.31;12840052;22;20434;-89
2022/09/28 18:37:09;;;;;;;6.50;4.47;;;;;;;6.32;100.00;99656.78;12803418;22;20377;-87
2022/09/28 18:42:11;;;;;;;11.48;5.30;;;;;;;5.88;100.00;99593.97;12834648;22;20027;-89
2022/09/28 18:47:13;;;;;;;8.98;5.97;;;;;;;5.68;100.00;99557.09;12831547;22;20000;-86
2022/09/28 18:52:14;;;;;;;8.82;5.53;;;;;;;6.20;100.00;99682.38;12876975;22;20465;-90
2022/09/28 18:57:27;;;;;;;9.48;5.30;;;;;;;4.86;100.00;99471.47;12848158;22;20007;-91
2022/09/28 19:02:30;;;;;;;10.40;5.35;;;;;;;6.61;100.00;99744.88;12772884;22;21608;-90
2022/09/28 19:07:35;;;;;;;8.52;4.68;;;;;;;5.42;100.00;99581.38;12813695;22;20020;-90
2022/09/28 19:12:35;;;;;;;9.77;6.40;;;;;;;6.13;100.00;99744.56;12809786;22;20003;-86
2022/09/28 19:17:46;;;;;;;8.07;5.45;;;;;;;6.24;100.00;99724.50;12879057;22;19995;-89
2022/09/28 19:22:54;;;;;;;6.35;5.35;;;;;;;6.18;100.00;99758.31;12845198;22;20036;-86
2022/09/28 19:27:54;;;;;;;9.25;5.95;;;;;;;4.64;100.00;99547.72;12903707;22;19999;-88
2022/09/28 19:32:55;;;;;;;7.40;5.35;;;;;;;4.64;100.00;99554.00;12824929;22;20018;-88
2022/09/28 19:37:56;;;;;;;7.78;5.47;;;;;;;5.35;100.00;99662.56;12892508;22;20423;-87
2022/09/28 19:42:58;;;;;;;6.75;5.30;;;;;;;6.43;100.00;99848.03;12894406;22;20137;-87
2022/09/28 19:48:00;;;;;;;5.55;5.05;;;;;;;5.64;100.00;99755.28;12896120;22;20322;-87
2022/09/28 19:53:01;;;;;;;7.32;6.35;;;;;;;6.10;100.00;99868.06;12866757;22;20015;-87
2022/09/28 19:58:02;;;;;;;7.45;6.05;;;;;;;5.28;100.00;99716.50;12903992;22;20468;-87
2022/09/28 20:03:03;;;;;;;13.63;7.47;;;;;;;4.95;100.00;99636.31;12945885;22;20315;-87
2022/09/28 20:08:04;;;;;;;10.82;7.50;;;;;;;5.64;100.00;99812.63;12904510;22;20079;-87
2022/09/28 20:13:04;;;;;;;8.45;6.60;;;;;;;5.00;100.00;99720.13;12894455;22;20053;-87
2022/09/28 20:18:05;;;;;;;15.35;7.15;;;;;;;3.73;100.00;99532.22;12891921;22;20003;-87
2022/09/28 20:23:06;;;;;;;10.55;6.72;;;;;;;4.32;100.00;99624.59;12879575;22;19996;-86
2022/09/28 20:28:06;;;;;;;12.38;6.97;;;;;;;4.09;100.00;99616.50;12904308;22;20008;-89
2022/09/28 20:33:08;;;;;;;8.45;6.88;;;;;;;4.51;100.00;99677.00;12893082;22;20030;-88
2022/09/28 20:38:16;;;;;;;9.35;7.10;;;;;;;4.75;100.00;99745.03;12836234;22;20450;-87
2022/09/28 20:43:17;;;;;;;10.48;7.00;;;;;;;5.15;100.00;99761.31;12943806;22;20035;-87
2022/09/28 20:48:18;;;;;;;11.52;7.18;;;;;;;4.04;100.00;99590.00;12854121;22;20015;-87
2022/09/28 20:53:19;;;;;;;7.53;5.95;;;;;;;3.79;100.00;99582.97;12825250;22;20014;-88
2022/09/28 20:58:20;;;;;;;9.23;7.10;;;;;;;5.10;100.00;99790.41;12902920;22;20018;-88
2022/09/28 21:03:20;;;;;;;9.35;7.40;;;;;;;4.00;100.00;99602.44;12869287;22;20012;-88
2022/09/28 21:08:24;;;;;;;8.73;6.50;;;;;;;4.39;100.00;99731.53;12855445;22;20056;-88
2022/09/28 21:13:25;;;;;;;9.63;7.00;;;;;;;4.65;100.00;99768.31;12865408;22;20122;-89
2022/09/28 21:18:26;;;;;;;7.97;6.30;;;;;;;4.20;100.00;99695.47;12853838;22;20008;-89
2022/09/28 21:23:27;;;;;;;12.52;7.47;;;;;;;4.47;100.00;99752.13;12850353;22;20004;-87
2022/09/28 21:28:27;;;;;;;13.85;7.85;;;;;;;4.03;100.00;99697.25;12899293;22;20000;-89
2022/09/28 21:33:28;;;;;;;9.00;6.97;;;;;;;3.66;100.00;99639.56;12859679;22;20433;-88
2022/09/28 21:38:28;;;;;;;9.43;7.03;;;;;;;3.64;100.00;99620.78;12875274;22;20019;-88
2022/09/28 21:43:30;;;;;;;8.75;6.63;;;;;;;5.13;100.00;99871.78;12855668;22;20020;-89
2022/09/28 21:48:31;;;;;;;10.52;7.70;;;;;;;3.76;100.00;99648.81;12760536;22;20012;-89
2022/09/28 21:53:34;;;;;;;9.60;7.32;;;;;;;5.26;100.00;99931.53;12864851;22;20004;-89
2022/09/28 21:58:37;;;;;;;9.70;7.25;;;;;;;3.89;100.00;99698.63;12875001;22;20011;-89
2022/09/28 22:03:39;;;;;;;10.52;6.93;;;;;;;3.98;100.00;99721.69;12845932;22;20004;-86
2022/09/28 22:08:51;;;;;;;8.65;6.05;;;;;;;5.24;100.00;99900.91;12852821;22;20431;-90
2022/09/28 22:13:58;;;;;;;8.55;6.45;;;;;;;3.39;100.00;99635.47;12880011;22;20034;-88
2022/09/28 22:18:58;;;;;;;8.93;7.40;;;;;;;4.68;100.00;99864.31;12864532;22;20016;-87
2022/09/28 22:24:00;;;;;;;10.27;7.82;;;;;;;4.82;100.00;99901.16;12788355;22;20477;-87
2022/09/28 22:29:03;;;;;;;11.77;8.35;;;;;;;3.56;100.00;99700.06;12890538;22;20011;-87
2022/09/28 22:34:04;;;;;;;10.90;8.38;;;;;;;4.52;100.00;99844.91;12915470;22;20019;-88
2022/09/28 22:39:04;;;;;;;13.73;8.63;;;;;;;2.88;100.00;99598.09;12915310;22;20015;-86
2022/09/28 22:44:05;;;;;;;12.30;8.40;;;;;;;3.49;100.00;99702.06;12890548;22;20132;-90
2022/09/28 22:49:08;;;;;;;11.10;8.50;;;;;;;3.10;100.00;99663.59;12864737;22;20059;-86
2022/09/28 22:54:14;;;;;;;11.13;8.30;;;;;;;3.68;100.00;99762.66;12859431;22;20015;-88
2022/09/28 22:59:14;;;;;;;10.95;9.27;;;;;;;3.38;100.00;99733.66;12887734;22;20062;-88
2022/09/28 23:04:15;;;;;;;9.93;8.43;;;;;;;4.37;100.00;99844.56;12880072;22;20082;-88
2022/09/28 23:09:18;;;;;;;9.50;8.50;;;;;;;3.59;100.00;99740.41;12866110;22;20431;-88
2022/09/28 23:14:21;;;;;;;12.15;8.73;;;;;;;4.27;100.00;99826.09;12864518;22;20008;-87
2022/09/28 23:19:22;;;;;;;13.15;8.68;;;;;;;4.23;100.00;99877.50;12824975;22;22663;-87
2022/09/28 23:24:22;;;;;;;10.82;8.07;;;;;;;2.89;100.00;99646.78;12877687;22;20003;-87
2022/09/28 23:29:23;;;;;;;11.63;8.45;;;;;;;3.78;100.00;99845.41;12878255;22;20032;-86
2022/09/28 23:34:24;;;;;;;9.98;8.45;;;;;;;2.99;100.00;99709.56;12890114;22;20553;-86
2022/09/28 23:39:24;;;;;;;9.75;8.18;;;;;;;3.15;100.00;99723.56;12890657;22;20346;-88